Brevik Bridge — VRHY7 — position and weather

sailwx.info

Track history (hours):
 
Tides and Currents Weather Stations Pressure Air Temp Water Temp Dewpoint Dewpoint Depression Visibility Wind Speed Wind Dir Waves Ship Positions

Brevik Bridge

Last reported at 2018-Feb-24 04:30 UTC. Time now 2018-Feb-24 04:34 UTC.
Position N 43°34' E 010°18'.

Length 268 m; draft 9.8 m.

Type: Ship (hazmat cat A). MMSI: 477866200.

Date/timePositionNaut miles runAvg speedWind from/ knotsBaromVisibWave heightAir tempDewpointWater temp
2018-Feb-24 04:30N 43°34' E 010°18'0 0.0
2018-Feb-24 03:57N 43°34' E 010°18'0 0.0
2018-Feb-24 03:27N 43°34' E 010°18'0 0.0
2018-Feb-24 03:00N 43°34' E 010°18'0 0.0
2018-Feb-24 02:30N 43°34' E 010°18'0 0.0
2018-Feb-24 02:00N 43°34' E 010°18'0 0.0
2018-Feb-24 01:27N 43°34' E 010°18'0 0.0
2018-Feb-24 01:00N 43°34' E 010°18'0 0.0
2018-Feb-24 00:30N 43°34' E 010°18'0 0.0
2018-Feb-24 00:00N 43°34' E 010°18'0 0.0
2018-Feb-23 23:24N 43°34' E 010°18'0 0.0
2018-Feb-23 23:00N 43°34' E 010°18'0 0.0
2018-Feb-23 22:30N 43°34' E 010°18'0 0.0
2018-Feb-23 22:00N 43°34' E 010°18'0 0.0
2018-Feb-23 21:30N 43°34' E 010°18'0 0.0
2018-Feb-23 21:00N 43°34' E 010°18'0 0.0
2018-Feb-23 20:30N 43°34' E 010°18'0 0.0
2018-Feb-23 20:00N 43°34' E 010°18'0 0.0
2018-Feb-23 19:30N 43°34' E 010°18'0 0.0
2018-Feb-23 19:00N 43°34' E 010°18'0 0.0
2018-Feb-23 18:30N 43°34' E 010°18'0 0.0
2018-Feb-23 18:00N 43°34' E 010°18'0 0.0
2018-Feb-23 17:30N 43°34' E 010°18'0 0.0
2018-Feb-23 17:00N 43°34' E 010°18'0 0.0
2018-Feb-23 16:30N 43°34' E 010°18'0 0.0
2018-Feb-23 16:00N 43°34' E 010°18'0 0.7
2018-Feb-23 15:30N 43°34' E 010°18'4 7.4
2018-Feb-23 15:01N 43°31' E 010°15'1 2.2
2018-Feb-23 14:31N 43°30' E 010°14'1 1.3
2018-Feb-23 14:00N 43°30' E 010°14'4 8.4
2018-Feb-23 13:30N 43°26' E 010°11'816.3
2018-Feb-23 13:00N 43°18' E 010°08'816.5
2018-Feb-23 12:30N 43°10' E 010°06'816.4
2018-Feb-23 12:00N 43°02' E 010°05'2415.3
2018-Feb-23 10:27N 42°39' E 010°09'816.9
2018-Feb-23 10:00N 42°33' E 010°16'816.6
2018-Feb-23 09:30N 42°27' E 010°24'1116.7
2018-Feb-23 08:51N 42°19' E 010°34'16919.3
2018-Feb-23 00:05N 40°37' E 013°34'219.7
2018-Feb-23 00:00N 40°37' E 013°37'1520.0
2018-Feb-22 23:14N 40°33' E 013°56'519.5
2018-Feb-22 22:59N 40°31' E 014°02'1417.5
2018-Feb-22 22:12N 40°29' E 014°20'517.1
2018-Feb-22 21:56N 40°31' E 014°25'717.4
2018-Feb-22 21:30N 40°34' E 014°34'7 0.4
2018-Feb-22 05:27N 40°37' E 014°43'2 2.8
2018-Feb-22 04:54N 40°35' E 014°42'3 6.3
2018-Feb-22 04:30N 40°33' E 014°40'6 8.3
2018-Feb-22 03:48N 40°30' E 014°34'414.0
2018-Feb-22 03:30N 40°29' E 014°28'714.2
2018-Feb-22 03:00N 40°26' E 014°20'816.2
2018-Feb-22 02:30N 40°22' E 014°10'917.7
2018-Feb-22 02:00N 40°19' E 013°60'  
2018-Feb-19 21:33N 35°59' W 005°14'119.5
2018-Feb-19 21:30N 35°59' W 005°15'1020.0
2018-Feb-19 21:00N 35°57' W 005°27'7219.2
2018-Feb-19 17:15N 35°58' W 006°56'16618.1
2018-Feb-19 08:03N 36°37' W 010°16'217.4
2018-Feb-19 07:57N 36°37' W 010°19'817.6
2018-Feb-19 07:30N 36°39' W 010°28'917.4
2018-Feb-19 07:00N 36°41' W 010°38'917.2
2018-Feb-19 06:31N 36°43' W 010°49'917.4
2018-Feb-19 06:00N 36°45' W 010°59'917.4
2018-Feb-19 05:31N 36°48' W 011°10'917.2
2018-Feb-19 05:01N 36°50' W 011°20'917.1
2018-Feb-19 04:31N 36°52' W 011°31'916.9
2018-Feb-19 04:00N 36°54' W 011°41'917.1
2018-Feb-19 03:29N 36°56' W 011°52'75417.3
2018-Feb-17 07:49N 39°31' W 027°31'1218.0
2018-Feb-17 07:08N 39°34' W 027°46'217.9
2018-Feb-17 07:00N 39°34' W 027°49'1018.3
2018-Feb-17 06:29N 39°35' W 028°02'817.9
2018-Feb-17 06:01N 39°37' W 028°13'917.2
2018-Feb-17 05:30N 39°38' W 028°24'917.5
2018-Feb-17 05:00N 39°40' W 028°35'917.6
2018-Feb-17 04:31N 39°41' W 028°46'917.7
2018-Feb-17 04:00N 39°43' W 028°57'917.6
2018-Feb-17 03:30N 39°44' W 029°09'917.4
2018-Feb-17 03:00N 39°46' W 029°20'917.7
2018-Feb-17 02:30N 39°47' W 029°31'917.8
2018-Feb-17 02:00N 39°49' W 029°43'917.8
2018-Feb-17 01:30N 39°50' W 029°54'8517.3
2018-Feb-16 20:35N 39°59' W 031°45'117.3
2018-Feb-16 20:30N 39°59' W 031°47'917.0
2018-Feb-16 19:59N 39°60' W 031°58'  
Track history (hours):
 
Tides and Currents Weather Stations Pressure Air Temp Water Temp Dewpoint Dewpoint Depression Visibility Wind Speed Wind Dir Waves Ship Positions

Brevik Bridge

Last reported at 2018-Feb-24 04:30 UTC. Time now 2018-Feb-24 04:34 UTC.
Position N 43°34' E 010°18'.

Length 268 m; draft 9.8 m.

Type: Ship (hazmat cat A). MMSI: 477866200.

Date/timePositionNaut miles runAvg speedWind from/ knotsBaromVisibWave heightAir tempDewpointWater temp
2018-Feb-24 04:30N 43°34' E 010°18'0 0.0
2018-Feb-24 03:57N 43°34' E 010°18'0 0.0
2018-Feb-24 03:27N 43°34' E 010°18'0 0.0
2018-Feb-24 03:00N 43°34' E 010°18'0 0.0
2018-Feb-24 02:30N 43°34' E 010°18'0 0.0
2018-Feb-24 02:00N 43°34' E 010°18'0 0.0
2018-Feb-24 01:27N 43°34' E 010°18'0 0.0
2018-Feb-24 01:00N 43°34' E 010°18'0 0.0
2018-Feb-24 00:30N 43°34' E 010°18'0 0.0
2018-Feb-24 00:00N 43°34' E 010°18'0 0.0
2018-Feb-23 23:24N 43°34' E 010°18'0 0.0
2018-Feb-23 23:00N 43°34' E 010°18'0 0.0
2018-Feb-23 22:30N 43°34' E 010°18'0 0.0
2018-Feb-23 22:00N 43°34' E 010°18'0 0.0
2018-Feb-23 21:30N 43°34' E 010°18'0 0.0
2018-Feb-23 21:00N 43°34' E 010°18'0 0.0
2018-Feb-23 20:30N 43°34' E 010°18'0 0.0
2018-Feb-23 20:00N 43°34' E 010°18'0 0.0
2018-Feb-23 19:30N 43°34' E 010°18'0 0.0
2018-Feb-23 19:00N 43°34' E 010°18'0 0.0
2018-Feb-23 18:30N 43°34' E 010°18'0 0.0
2018-Feb-23 18:00N 43°34' E 010°18'0 0.0
2018-Feb-23 17:30N 43°34' E 010°18'0 0.0
2018-Feb-23 17:00N 43°34' E 010°18'0 0.0
2018-Feb-23 16:30N 43°34' E 010°18'0 0.0
2018-Feb-23 16:00N 43°34' E 010°18'0 0.7
2018-Feb-23 15:30N 43°34' E 010°18'4 7.4
2018-Feb-23 15:01N 43°31' E 010°15'1 2.2
2018-Feb-23 14:31N 43°30' E 010°14'1 1.3
2018-Feb-23 14:00N 43°30' E 010°14'4 8.4
2018-Feb-23 13:30N 43°26' E 010°11'816.3
2018-Feb-23 13:00N 43°18' E 010°08'816.5
2018-Feb-23 12:30N 43°10' E 010°06'816.4
2018-Feb-23 12:00N 43°02' E 010°05'2415.3
2018-Feb-23 10:27N 42°39' E 010°09'816.9
2018-Feb-23 10:00N 42°33' E 010°16'816.6
2018-Feb-23 09:30N 42°27' E 010°24'1116.7
2018-Feb-23 08:51N 42°19' E 010°34'16919.3
2018-Feb-23 00:05N 40°37' E 013°34'219.7
2018-Feb-23 00:00N 40°37' E 013°37'1520.0
2018-Feb-22 23:14N 40°33' E 013°56'519.5
2018-Feb-22 22:59N 40°31' E 014°02'1417.5
2018-Feb-22 22:12N 40°29' E 014°20'517.1
2018-Feb-22 21:56N 40°31' E 014°25'717.4
2018-Feb-22 21:30N 40°34' E 014°34'7 0.4
2018-Feb-22 05:27N 40°37' E 014°43'2 2.8
2018-Feb-22 04:54N 40°35' E 014°42'3 6.3
2018-Feb-22 04:30N 40°33' E 014°40'6 8.3
2018-Feb-22 03:48N 40°30' E 014°34'414.0
2018-Feb-22 03:30N 40°29' E 014°28'714.2
2018-Feb-22 03:00N 40°26' E 014°20'816.2
2018-Feb-22 02:30N 40°22' E 014°10'917.7
2018-Feb-22 02:00N 40°19' E 013°60'  
2018-Feb-19 21:33N 35°59' W 005°14'119.5
2018-Feb-19 21:30N 35°59' W 005°15'1020.0
2018-Feb-19 21:00N 35°57' W 005°27'7219.2
2018-Feb-19 17:15N 35°58' W 006°56'16618.1
2018-Feb-19 08:03N 36°37' W 010°16'217.4
2018-Feb-19 07:57N 36°37' W 010°19'817.6
2018-Feb-19 07:30N 36°39' W 010°28'917.4
2018-Feb-19 07:00N 36°41' W 010°38'917.2
2018-Feb-19 06:31N 36°43' W 010°49'917.4
2018-Feb-19 06:00N 36°45' W 010°59'917.4
2018-Feb-19 05:31N 36°48' W 011°10'917.2
2018-Feb-19 05:01N 36°50' W 011°20'917.1
2018-Feb-19 04:31N 36°52' W 011°31'916.9
2018-Feb-19 04:00N 36°54' W 011°41'917.1
2018-Feb-19 03:29N 36°56' W 011°52'75417.3
2018-Feb-17 07:49N 39°31' W 027°31'1218.0
2018-Feb-17 07:08N 39°34' W 027°46'217.9
2018-Feb-17 07:00N 39°34' W 027°49'1018.3
2018-Feb-17 06:29N 39°35' W 028°02'817.9
2018-Feb-17 06:01N 39°37' W 028°13'917.2
2018-Feb-17 05:30N 39°38' W 028°24'917.5
2018-Feb-17 05:00N 39°40' W 028°35'917.6
2018-Feb-17 04:31N 39°41' W 028°46'917.7
2018-Feb-17 04:00N 39°43' W 028°57'917.6
2018-Feb-17 03:30N 39°44' W 029°09'917.4
2018-Feb-17 03:00N 39°46' W 029°20'917.7
2018-Feb-17 02:30N 39°47' W 029°31'917.8
2018-Feb-17 02:00N 39°49' W 029°43'917.8
2018-Feb-17 01:30N 39°50' W 029°54'8517.3
2018-Feb-16 20:35N 39°59' W 031°45'117.3
2018-Feb-16 20:30N 39°59' W 031°47'917.0
2018-Feb-16 19:59N 39°60' W 031°58'  

Dump ship's entire track history